createdAt,value
2022-12-16T00:04:46.912Z,52.8
2022-12-16T00:10:32.780Z,52.8
2022-12-16T00:16:00.672Z,52.8
2022-12-16T00:21:40.982Z,52.7
2022-12-16T00:27:18.919Z,52.7
2022-12-16T00:33:01.639Z,52.6
2022-12-16T00:38:43.022Z,52.6
2022-12-16T00:44:21.467Z,52.5
2022-12-16T00:49:30.217Z,52.5
2022-12-16T00:54:54.454Z,52.4
2022-12-16T01:05:42.516Z,52.3
2022-12-16T01:10:36.996Z,52.3
2022-12-16T01:15:46.427Z,52.3
2022-12-16T01:20:38.332Z,52.2
2022-12-16T01:26:17.872Z,52.2
2022-12-16T01:31:56.695Z,52.1
2022-12-16T01:38:04.730Z,52.1
2022-12-16T01:43:47.598Z,52
2022-12-16T02:00:10.710Z,51.9
2022-12-16T02:05:34.946Z,51.8
2022-12-16T02:10:41.932Z,51.8
2022-12-16T02:21:26.922Z,53.3
2022-12-16T02:26:04.926Z,54.3
2022-12-16T02:31:51.831Z,55.3
2022-12-16T02:36:46.348Z,56.4
2022-12-16T02:42:11.508Z,57.3
2022-12-16T02:47:51.096Z,58.4
2022-12-16T02:53:29.365Z,59.5
2022-12-16T02:58:35.643Z,60.5
2022-12-16T03:04:14.569Z,61.5
2022-12-16T03:09:52.057Z,61.8
2022-12-16T03:15:14.608Z,61.9
2022-12-16T03:20:53.067Z,62.1
2022-12-16T03:26:33.163Z,62.3
2022-12-16T03:31:55.640Z,62.4
2022-12-16T03:37:34.108Z,62.4
2022-12-16T03:42:56.387Z,62.4
2022-12-16T03:48:24.033Z,62.3
2022-12-16T03:54:03.633Z,62.3
2022-12-16T03:59:47.463Z,62.3
2022-12-16T04:05:28.033Z,62.3
2022-12-16T04:11:09.625Z,62.2
2022-12-16T04:16:49.939Z,62.2
2022-12-16T04:22:30.989Z,62.1
2022-12-16T04:28:09.077Z,62.1
2022-12-16T04:33:47.934Z,62.1
2022-12-16T04:39:25.551Z,62
2022-12-16T04:45:05.658Z,61.9
2022-12-16T04:50:31.520Z,61.9
2022-12-16T04:55:53.242Z,61.9
2022-12-16T05:00:59.459Z,61.8
2022-12-16T05:06:39.330Z,61.8
2022-12-16T05:12:19.298Z,61.8
2022-12-16T05:17:58.236Z,61.7
2022-12-16T05:23:40.650Z,61.7
2022-12-16T05:29:07.340Z,61.6
2022-12-16T05:34:33.575Z,61.6
2022-12-16T05:40:11.603Z,61.6
2022-12-16T05:45:51.280Z,61.4
2022-12-16T05:51:18.562Z,61.4
2022-12-16T05:56:57.018Z,61.4
2022-12-16T06:02:35.527Z,61.3
2022-12-16T06:07:44.893Z,61.3
2022-12-16T06:13:22.938Z,61.3
2022-12-16T06:19:00.609Z,61.2
2022-12-16T06:24:42.644Z,61.1
2022-12-16T06:30:09.176Z,61.1
2022-12-16T06:35:51.528Z,61.1
2022-12-16T06:41:32.505Z,61
2022-12-16T06:47:14.186Z,61
2022-12-16T06:52:57.447Z,60.9
2022-12-16T06:58:41.934Z,60.9
2022-12-16T07:03:52.630Z,60.9
2022-12-16T07:09:31.623Z,60.7
2022-12-16T07:15:15.609Z,60.6
2022-12-16T07:20:57.842Z,60.6
2022-12-16T07:26:47.079Z,60.5
2022-12-16T07:32:30.309Z,60.4
2022-12-16T07:38:13.752Z,60.4
2022-12-16T07:43:53.744Z,60.4
2022-12-16T07:49:34.022Z,60.3
2022-12-16T07:55:14.585Z,60.3
2022-12-16T08:00:51.846Z,60.3
2022-12-16T08:54:36.647Z,59.8
2022-12-16T09:00:17.925Z,59.7
2022-12-16T09:05:45.062Z,59.7
2022-12-16T09:11:31.506Z,59.6
2022-12-16T09:17:11.158Z,59.6
2022-12-16T09:22:54.099Z,59.6
2022-12-16T09:28:34.510Z,59.4
2022-12-16T09:34:16.642Z,59.4
2022-12-16T09:40:04.041Z,59.4
2022-12-16T09:45:47.264Z,59.3
2022-12-16T09:51:28.883Z,59.3
2022-12-16T09:57:07.554Z,59.3
2022-12-16T10:02:33.639Z,59.3
2022-12-16T10:08:18.706Z,59.4
2022-12-16T10:13:58.258Z,59.6
2022-12-16T10:19:45.103Z,59.8
2022-12-16T10:25:18.076Z,60.1
2022-12-16T10:31:02.231Z,60.5
2022-12-16T10:36:28.558Z,60.8
2022-12-16T10:42:16.785Z,61.1
2022-12-16T10:47:54.977Z,61.4
2022-12-16T10:53:54.130Z,61.7
2022-12-16T10:59:24.020Z,62.1
2022-12-16T11:05:05.767Z,62.4
2022-12-16T11:10:45.138Z,62.7
2022-12-16T11:16:52.871Z,62.9
2022-12-16T11:22:35.418Z,63.1
2022-12-16T11:28:18.403Z,63.3
2022-12-16T11:33:58.987Z,63.6
2022-12-16T11:39:36.454Z,63.8
2022-12-16T11:45:26.041Z,64
2022-12-16T11:51:05.361Z,64.1
2022-12-16T11:57:25.830Z,64.3
2022-12-16T12:02:53.337Z,64.4
2022-12-16T12:08:35.906Z,64.5
2022-12-16T12:14:19.464Z,64.6
2022-12-16T12:20:00.976Z,64.6
2022-12-16T12:25:45.804Z,64.6
2022-12-16T12:31:23.440Z,64.6
2022-12-16T12:37:09.430Z,64.6
2022-12-16T12:42:31.522Z,64.5
2022-12-16T12:48:28.979Z,64.5
2022-12-16T12:53:37.066Z,64.4
2022-12-16T12:59:23.051Z,64.4
2022-12-16T13:05:09.499Z,64.4
2022-12-16T13:10:48.650Z,64.4
2022-12-16T13:16:30.923Z,64.3
2022-12-16T13:22:03.442Z,64.3
2022-12-16T13:27:42.234Z,64.3
2022-12-16T13:33:23.285Z,64.2
2022-12-16T13:39:09.747Z,64.1
2022-12-16T13:44:48.449Z,64.1
2022-12-16T13:50:29.542Z,64.1
2022-12-16T13:56:14.268Z,64
2022-12-16T14:01:43.861Z,63.9
2022-12-16T14:07:24.719Z,63.9
2022-12-16T14:12:49.475Z,63.9
2022-12-16T14:18:28.283Z,63.8
2022-12-16T14:24:37.065Z,63.6
2022-12-16T14:30:16.514Z,63.5
2022-12-16T14:35:55.044Z,63.4
2022-12-16T14:41:38.640Z,63.3
2022-12-16T14:47:01.294Z,63.1
2022-12-16T14:52:47.615Z,63.1
2022-12-16T14:58:27.007Z,63
2022-12-16T15:03:55.646Z,62.9
2022-12-16T15:09:46.003Z,62.9
2022-12-16T15:15:26.508Z,62.8
2022-12-16T15:21:09.348Z,62.8
2022-12-16T15:26:53.559Z,62.6
2022-12-16T15:32:36.375Z,62.6
2022-12-16T15:38:03.760Z,62.5
2022-12-16T15:43:26.808Z,62.5
2022-12-16T15:49:04.683Z,62.4
2022-12-16T15:54:47.557Z,62.3
2022-12-16T16:00:30.820Z,62.3
2022-12-16T16:06:00.093Z,62.2
2022-12-16T16:11:44.224Z,62.1
2022-12-16T16:17:30.824Z,62.1
2022-12-16T16:22:55.928Z,62
2022-12-16T16:34:01.607Z,61.9
2022-12-16T16:39:09.555Z,61.8
2022-12-16T16:44:52.328Z,61.8
2022-12-16T16:50:19.213Z,61.6
2022-12-16T16:55:41.642Z,61.6
2022-12-16T17:01:25.431Z,61.5
2022-12-16T17:07:12.619Z,61.4
2022-12-16T17:13:01.255Z,61.4
2022-12-16T17:18:45.762Z,61.3
2022-12-16T17:24:26.550Z,61.3
2022-12-16T17:30:10.872Z,61.2
2022-12-16T17:35:53.130Z,61.1
2022-12-16T17:41:05.914Z,61.1
2022-12-16T17:46:45.657Z,61
2022-12-16T17:52:26.697Z,60.9
2022-12-16T17:58:05.221Z,60.9
2022-12-16T18:03:45.203Z,60.8
2022-12-16T18:08:54.320Z,60.8
2022-12-16T18:14:17.402Z,60.7
2022-12-16T18:19:40.597Z,60.6
2022-12-16T18:25:05.150Z,60.6
2022-12-16T18:30:27.951Z,60.5
2022-12-16T18:36:10.555Z,60.4
2022-12-16T18:41:50.499Z,60.4
2022-12-16T18:47:35.851Z,60.3
2022-12-16T18:52:48.255Z,60.3
2022-12-16T18:58:34.664Z,60.2
2022-12-16T19:04:22.283Z,60.1
2022-12-16T19:09:59.487Z,60.1
2022-12-16T19:26:20.978Z,59.9
2022-12-16T23:37:07.330Z,57.1
2022-12-16T23:42:48.776Z,57.1
2022-12-16T23:48:34.973Z,57
2022-12-16T23:54:02.247Z,56.9
2022-12-16T23:59:39.815Z,56.9
